Impacts TAF Board INFO
FOR SITUATIONAL AWARENESS. NOT TO BE USED FOR FLIGHT PLANNING PURPOSES.
IDs:

KDFW - Dallas-Ft Worth Intl, TX, US

Issued at 0303 UTC 21 Jan 2018
Updated at 0433 UTC 21 Jan 2018
Potential Impact None Slight Moderate High
Time<<21/17Z 21/18Z 21/19Z 21/20Z 21/21Z 21/22Z 21/23Z 22/00Z 22/01Z 22/02Z 22/03Z 22/04Z 22/05Z>>
Type PRVL PRVL PRVL PRVL PRVL PRVL PRVL PRVL PRVL PRVL PRVL PRVL PRVL
VIS >6 >6 >6 >6 >6 >6 >6 >6 >6 >6 >6 >6 >6
CIG 25 25 25 40 40 -- -- -- -- -- -- -- --
Cover BKN BKN BKN BKN BKN SCT SCT SCT SCT SCT SKC SKC SKC
FltCat MVFR MVFR MVFR VFR VFR VFR VFR VFR VFR VFR VFR VFR VFR
WX VCSH VCSH VCSH -- -- -- -- -- -- -- -- -- --
WDir 200 200 200 220 220 230 230 230 230 230 250 250 250
WSpd 20 20 20 21 21 18 18 18 18 18 15 15 15
WGst -- -- -- -- -- -- -- -- -- -- -- -- --

Raw TAF
KDFW 210303Z 2103/2206 17018KT P6SM SCT018
  FM210400 18017KT P6SM BKN015
  FM210800 17015KT 5SM -DZ BR OVC012
  FM211700 20020KT P6SM VCSH BKN025
  FM212000 22021KT P6SM BKN040
  FM212200 23018KT P6SM SCT050
  FM220300 25015KT P6SM SKC


METAR Board
Radar Display
Forecast Discussion

FOR SITUATIONAL AWARENESS. NOT TO BE USED FOR FLIGHT PLANNING PURPOSES.